sensor_id;sensor_type;location;lat;lon;timestamp;P1;durP1;ratioP1;P2;durP2;ratioP2
70433;SDS011;57876;47.792;12.960;2022-09-29T00:00:21;2.75;;;0.50;;
70433;SDS011;57876;47.792;12.960;2022-09-29T00:02:45;3.13;;;0.60;;
70433;SDS011;57876;47.792;12.960;2022-09-29T00:05:10;2.33;;;0.40;;
70433;SDS011;57876;47.792;12.960;2022-09-29T00:07:34;2.17;;;0.40;;
70433;SDS011;57876;47.792;12.960;2022-09-29T00:09:59;3.43;;;0.53;;
70433;SDS011;57876;47.792;12.960;2022-09-29T00:12:23;2.70;;;0.53;;
70433;SDS011;57876;47.792;12.960;2022-09-29T00:14:48;2.80;;;0.50;;
70433;SDS011;57876;47.792;12.960;2022-09-29T00:17:13;2.65;;;0.60;;
70433;SDS011;57876;47.792;12.960;2022-09-29T00:19:38;2.88;;;0.55;;
70433;SDS011;57876;47.792;12.960;2022-09-29T00:22:02;2.27;;;0.40;;
70433;SDS011;57876;47.792;12.960;2022-09-29T00:24:26;3.00;;;0.40;;
70433;SDS011;57876;47.792;12.960;2022-09-29T00:26:52;2.42;;;0.40;;
70433;SDS011;57876;47.792;12.960;2022-09-29T00:29:16;2.63;;;0.40;;
70433;SDS011;57876;47.792;12.960;2022-09-29T00:31:40;2.40;;;0.40;;
70433;SDS011;57876;47.792;12.960;2022-09-29T00:34:05;2.30;;;0.50;;
70433;SDS011;57876;47.792;12.960;2022-09-29T00:36:29;2.57;;;0.40;;
70433;SDS011;57876;47.792;12.960;2022-09-29T00:38:54;3.40;;;0.50;;
70433;SDS011;57876;47.792;12.960;2022-09-29T00:41:20;2.70;;;0.50;;
70433;SDS011;57876;47.792;12.960;2022-09-29T00:46:54;2.43;;;0.50;;
70433;SDS011;57876;47.792;12.960;2022-09-29T00:52:03;2.65;;;0.40;;
70433;SDS011;57876;47.792;12.960;2022-09-29T00:54:39;2.42;;;0.50;;
70433;SDS011;57876;47.792;12.960;2022-09-29T00:57:07;2.28;;;0.43;;
70433;SDS011;57876;47.792;12.960;2022-09-29T00:59:36;1.77;;;0.33;;
70433;SDS011;57876;47.792;12.960;2022-09-29T01:02:09;2.25;;;0.40;;
70433;SDS011;57876;47.792;12.960;2022-09-29T01:04:33;2.77;;;0.50;;
70433;SDS011;57876;47.792;12.960;2022-09-29T01:06:58;2.45;;;0.40;;
70433;SDS011;57876;47.792;12.960;2022-09-29T01:09:27;2.17;;;0.40;;
70433;SDS011;57876;47.792;12.960;2022-09-29T01:11:55;2.10;;;0.40;;
70433;SDS011;57876;47.792;12.960;2022-09-29T01:14:23;2.63;;;0.50;;
70433;SDS011;57876;47.792;12.960;2022-09-29T01:16:49;2.35;;;0.40;;
70433;SDS011;57876;47.792;12.960;2022-09-29T01:19:15;2.70;;;0.40;;
70433;SDS011;57876;47.792;12.960;2022-09-29T01:35:15;2.50;;;0.40;;
70433;SDS011;57876;47.792;12.960;2022-09-29T01:43:06;1.88;;;0.30;;
70433;SDS011;57876;47.792;12.960;2022-09-29T01:45:33;2.42;;;0.40;;
70433;SDS011;57876;47.792;12.960;2022-09-29T01:48:02;1.83;;;0.38;;
70433;SDS011;57876;47.792;12.960;2022-09-29T01:50:34;2.00;;;0.40;;
70433;SDS011;57876;47.792;12.960;2022-09-29T01:53:06;2.63;;;0.50;;
70433;SDS011;57876;47.792;12.960;2022-09-29T01:55:34;2.10;;;0.47;;
70433;SDS011;57876;47.792;12.960;2022-09-29T01:58:06;2.38;;;0.40;;
70433;SDS011;57876;47.792;12.960;2022-09-29T02:01:08;2.70;;;0.50;;
70433;SDS011;57876;47.792;12.960;2022-09-29T02:03:29;2.03;;;0.40;;
70433;SDS011;57876;47.792;12.960;2022-09-29T02:05:58;2.60;;;0.40;;
70433;SDS011;57876;47.792;12.960;2022-09-29T02:08:43;2.08;;;0.35;;
70433;SDS011;57876;47.792;12.960;2022-09-29T02:11:12;2.30;;;0.50;;
70433;SDS011;57876;47.792;12.960;2022-09-29T02:13:42;2.77;;;0.50;;
70433;SDS011;57876;47.792;12.960;2022-09-29T02:16:12;2.25;;;0.50;;
70433;SDS011;57876;47.792;12.960;2022-09-29T02:18:48;2.53;;;0.50;;
70433;SDS011;57876;47.792;12.960;2022-09-29T02:21:13;2.30;;;0.40;;
70433;SDS011;57876;47.792;12.960;2022-09-29T02:23:37;2.00;;;0.40;;
70433;SDS011;57876;47.792;12.960;2022-09-29T02:26:02;2.23;;;0.40;;
70433;SDS011;57876;47.792;12.960;2022-09-29T02:28:27;2.63;;;0.50;;
70433;SDS011;57876;47.792;12.960;2022-09-29T02:30:51;2.20;;;0.40;;
70433;SDS011;57876;47.792;12.960;2022-09-29T02:33:16;1.77;;;0.40;;
70433;SDS011;57876;47.792;12.960;2022-09-29T02:36:33;1.83;;;0.35;;
70433;SDS011;57876;47.792;12.960;2022-09-29T02:38:58;2.53;;;0.40;;
70433;SDS011;57876;47.792;12.960;2022-09-29T02:47:01;2.00;;;0.40;;
70433;SDS011;57876;47.792;12.960;2022-09-29T02:55:18;1.97;;;0.30;;
70433;SDS011;57876;47.792;12.960;2022-09-29T02:57:52;1.58;;;0.30;;
70433;SDS011;57876;47.792;12.960;2022-09-29T03:00:22;2.38;;;0.47;;
70433;SDS011;57876;47.792;12.960;2022-09-29T03:02:48;1.88;;;0.40;;
70433;SDS011;57876;47.792;12.960;2022-09-29T03:05:13;2.30;;;0.40;;
70433;SDS011;57876;47.792;12.960;2022-09-29T03:07:40;2.35;;;0.40;;
70433;SDS011;57876;47.792;12.960;2022-09-29T03:10:05;2.43;;;0.43;;
70433;SDS011;57876;47.792;12.960;2022-09-29T03:12:31;2.40;;;0.40;;
70433;SDS011;57876;47.792;12.960;2022-09-29T03:14:55;2.40;;;0.47;;
70433;SDS011;57876;47.792;12.960;2022-09-29T03:17:20;1.87;;;0.40;;
70433;SDS011;57876;47.792;12.960;2022-09-29T03:19:44;1.92;;;0.30;;
70433;SDS011;57876;47.792;12.960;2022-09-29T03:22:08;2.33;;;0.40;;
70433;SDS011;57876;47.792;12.960;2022-09-29T03:24:33;2.13;;;0.40;;
70433;SDS011;57876;47.792;12.960;2022-09-29T03:26:57;2.53;;;0.40;;
70433;SDS011;57876;47.792;12.960;2022-09-29T03:29:22;2.20;;;0.40;;
70433;SDS011;57876;47.792;12.960;2022-09-29T03:31:46;1.95;;;0.30;;
70433;SDS011;57876;47.792;12.960;2022-09-29T03:34:10;1.93;;;0.50;;
70433;SDS011;57876;47.792;12.960;2022-09-29T03:36:35;1.93;;;0.33;;
70433;SDS011;57876;47.792;12.960;2022-09-29T03:38:59;2.23;;;0.40;;
70433;SDS011;57876;47.792;12.960;2022-09-29T03:41:23;2.07;;;0.40;;
70433;SDS011;57876;47.792;12.960;2022-09-29T03:43:48;2.00;;;0.40;;
70433;SDS011;57876;47.792;12.960;2022-09-29T03:46:12;1.90;;;0.30;;
70433;SDS011;57876;47.792;12.960;2022-09-29T03:48:36;2.43;;;0.40;;
70433;SDS011;57876;47.792;12.960;2022-09-29T03:51:02;3.15;;;0.50;;
70433;SDS011;57876;47.792;12.960;2022-09-29T03:53:27;2.37;;;0.37;;
70433;SDS011;57876;47.792;12.960;2022-09-29T03:55:51;1.93;;;0.40;;
70433;SDS011;57876;47.792;12.960;2022-09-29T03:58:16;2.35;;;0.50;;
70433;SDS011;57876;47.792;12.960;2022-09-29T04:00:41;1.98;;;0.40;;
70433;SDS011;57876;47.792;12.960;2022-09-29T04:03:05;2.23;;;0.50;;
70433;SDS011;57876;47.792;12.960;2022-09-29T04:05:30;2.00;;;0.40;;
70433;SDS011;57876;47.792;12.960;2022-09-29T04:07:54;2.72;;;0.40;;
70433;SDS011;57876;47.792;12.960;2022-09-29T04:10:19;1.80;;;0.40;;
70433;SDS011;57876;47.792;12.960;2022-09-29T04:12:43;2.30;;;0.40;;
70433;SDS011;57876;47.792;12.960;2022-09-29T04:15:07;2.10;;;0.30;;
70433;SDS011;57876;47.792;12.960;2022-09-29T04:17:32;2.15;;;0.50;;
70433;SDS011;57876;47.792;12.960;2022-09-29T04:19:57;2.00;;;0.40;;
70433;SDS011;57876;47.792;12.960;2022-09-29T04:22:21;2.10;;;0.40;;
70433;SDS011;57876;47.792;12.960;2022-09-29T04:24:46;2.25;;;0.40;;
70433;SDS011;57876;47.792;12.960;2022-09-29T04:27:15;1.80;;;0.33;;
70433;SDS011;57876;47.792;12.960;2022-09-29T04:29:39;2.30;;;0.40;;
70433;SDS011;57876;47.792;12.960;2022-09-29T04:32:04;2.27;;;0.43;;
70433;SDS011;57876;47.792;12.960;2022-09-29T04:34:29;2.10;;;0.40;;
70433;SDS011;57876;47.792;12.960;2022-09-29T04:36:53;1.63;;;0.30;;
70433;SDS011;57876;47.792;12.960;2022-09-29T04:39:18;1.97;;;0.50;;
70433;SDS011;57876;47.792;12.960;2022-09-29T04:41:42;1.92;;;0.35;;
70433;SDS011;57876;47.792;12.960;2022-09-29T04:44:07;2.50;;;0.50;;
70433;SDS011;57876;47.792;12.960;2022-09-29T04:46:31;2.40;;;0.50;;
70433;SDS011;57876;47.792;12.960;2022-09-29T04:48:56;1.88;;;0.40;;
70433;SDS011;57876;47.792;12.960;2022-09-29T04:51:20;1.70;;;0.30;;
70433;SDS011;57876;47.792;12.960;2022-09-29T04:53:45;2.47;;;0.40;;
70433;SDS011;57876;47.792;12.960;2022-09-29T04:56:09;2.23;;;0.40;;
70433;SDS011;57876;47.792;12.960;2022-09-29T04:58:34;1.73;;;0.40;;
70433;SDS011;57876;47.792;12.960;2022-09-29T05:01:09;2.63;;;0.40;;
70433;SDS011;57876;47.792;12.960;2022-09-29T05:03:36;2.30;;;0.40;;
70433;SDS011;57876;47.792;12.960;2022-09-29T05:06:01;1.85;;;0.30;;
70433;SDS011;57876;47.792;12.960;2022-09-29T05:08:25;2.07;;;0.30;;
70433;SDS011;57876;47.792;12.960;2022-09-29T05:10:50;2.17;;;0.40;;
70433;SDS011;57876;47.792;12.960;2022-09-29T05:13:14;2.77;;;0.50;;
70433;SDS011;57876;47.792;12.960;2022-09-29T05:15:38;2.00;;;0.40;;
70433;SDS011;57876;47.792;12.960;2022-09-29T05:18:03;2.40;;;0.40;;
70433;SDS011;57876;47.792;12.960;2022-09-29T05:20:27;2.20;;;0.40;;
70433;SDS011;57876;47.792;12.960;2022-09-29T05:22:52;1.93;;;0.37;;
70433;SDS011;57876;47.792;12.960;2022-09-29T05:25:16;2.40;;;0.40;;
70433;SDS011;57876;47.792;12.960;2022-09-29T05:27:40;2.43;;;0.40;;
70433;SDS011;57876;47.792;12.960;2022-09-29T05:30:05;2.13;;;0.37;;
70433;SDS011;57876;47.792;12.960;2022-09-29T05:32:30;2.35;;;0.43;;
70433;SDS011;57876;47.792;12.960;2022-09-29T05:34:54;2.03;;;0.40;;
70433;SDS011;57876;47.792;12.960;2022-09-29T05:37:18;2.07;;;0.40;;
70433;SDS011;57876;47.792;12.960;2022-09-29T05:39:43;2.20;;;0.37;;
70433;SDS011;57876;47.792;12.960;2022-09-29T05:42:09;1.60;;;0.30;;
70433;SDS011;57876;47.792;12.960;2022-09-29T05:44:34;1.77;;;0.32;;
70433;SDS011;57876;47.792;12.960;2022-09-29T05:46:58;2.23;;;0.40;;
70433;SDS011;57876;47.792;12.960;2022-09-29T05:49:23;2.27;;;0.40;;
70433;SDS011;57876;47.792;12.960;2022-09-29T05:51:47;2.77;;;0.40;;
70433;SDS011;57876;47.792;12.960;2022-09-29T05:54:12;1.80;;;0.40;;
70433;SDS011;57876;47.792;12.960;2022-09-29T05:56:37;2.20;;;0.40;;
70433;SDS011;57876;47.792;12.960;2022-09-29T05:59:01;2.58;;;0.50;;
70433;SDS011;57876;47.792;12.960;2022-09-29T06:01:26;2.27;;;0.40;;
70433;SDS011;57876;47.792;12.960;2022-09-29T06:03:54;2.08;;;0.40;;
70433;SDS011;57876;47.792;12.960;2022-09-29T06:06:20;2.60;;;0.50;;
70433;SDS011;57876;47.792;12.960;2022-09-29T06:08:46;2.53;;;0.50;;
70433;SDS011;57876;47.792;12.960;2022-09-29T06:11:14;2.53;;;0.50;;
70433;SDS011;57876;47.792;12.960;2022-09-29T06:13:45;2.40;;;0.40;;
70433;SDS011;57876;47.792;12.960;2022-09-29T06:16:12;2.67;;;0.60;;
70433;SDS011;57876;47.792;12.960;2022-09-29T06:18:37;3.00;;;0.50;;
70433;SDS011;57876;47.792;12.960;2022-09-29T06:21:02;2.47;;;0.40;;
70433;SDS011;57876;47.792;12.960;2022-09-29T06:23:31;2.17;;;0.50;;
70433;SDS011;57876;47.792;12.960;2022-09-29T06:25:59;2.28;;;0.40;;
70433;SDS011;57876;47.792;12.960;2022-09-29T06:28:25;2.10;;;0.40;;
70433;SDS011;57876;47.792;12.960;2022-09-29T06:30:49;1.90;;;0.30;;
70433;SDS011;57876;47.792;12.960;2022-09-29T06:33:14;3.13;;;0.60;;
70433;SDS011;57876;47.792;12.960;2022-09-29T06:35:38;1.60;;;0.30;;
70433;SDS011;57876;47.792;12.960;2022-09-29T06:38:28;2.75;;;0.50;;
70433;SDS011;57876;47.792;12.960;2022-09-29T06:40:54;2.97;;;0.50;;
70433;SDS011;57876;47.792;12.960;2022-09-29T06:43:18;2.03;;;0.40;;
70433;SDS011;57876;47.792;12.960;2022-09-29T06:45:42;2.60;;;0.50;;
70433;SDS011;57876;47.792;12.960;2022-09-29T06:48:07;2.60;;;0.50;;
70433;SDS011;57876;47.792;12.960;2022-09-29T06:50:33;2.47;;;0.50;;
70433;SDS011;57876;47.792;12.960;2022-09-29T06:52:57;2.37;;;0.50;;
70433;SDS011;57876;47.792;12.960;2022-09-29T06:55:22;2.20;;;0.50;;
70433;SDS011;57876;47.792;12.960;2022-09-29T06:57:46;2.72;;;0.40;;
70433;SDS011;57876;47.792;12.960;2022-09-29T07:00:11;2.27;;;0.40;;
70433;SDS011;57876;47.792;12.960;2022-09-29T07:02:35;3.10;;;0.50;;
70433;SDS011;57876;47.792;12.960;2022-09-29T07:04:59;2.40;;;0.40;;
70433;SDS011;57876;47.792;12.960;2022-09-29T07:07:24;2.60;;;0.57;;
70433;SDS011;57876;47.792;12.960;2022-09-29T07:09:48;2.95;;;0.52;;
70433;SDS011;57876;47.792;12.960;2022-09-29T07:12:12;2.37;;;0.47;;
70433;SDS011;57876;47.792;12.960;2022-09-29T07:14:37;2.57;;;0.50;;
70433;SDS011;57876;47.792;12.960;2022-09-29T07:17:01;2.20;;;0.40;;
70433;SDS011;57876;47.792;12.960;2022-09-29T07:19:26;2.97;;;0.43;;
70433;SDS011;57876;47.792;12.960;2022-09-29T07:21:50;2.53;;;0.50;;
70433;SDS011;57876;47.792;12.960;2022-09-29T07:24:15;3.07;;;0.60;;
70433;SDS011;57876;47.792;12.960;2022-09-29T07:26:39;2.53;;;0.50;;
70433;SDS011;57876;47.792;12.960;2022-09-29T07:29:04;2.45;;;0.40;;
70433;SDS011;57876;47.792;12.960;2022-09-29T07:31:28;2.73;;;0.60;;
70433;SDS011;57876;47.792;12.960;2022-09-29T07:33:53;2.67;;;0.50;;
70433;SDS011;57876;47.792;12.960;2022-09-29T07:36:19;2.85;;;0.52;;
70433;SDS011;57876;47.792;12.960;2022-09-29T07:38:44;2.53;;;0.50;;
70433;SDS011;57876;47.792;12.960;2022-09-29T07:41:10;3.00;;;0.50;;
70433;SDS011;57876;47.792;12.960;2022-09-29T07:43:35;3.13;;;0.60;;
70433;SDS011;57876;47.792;12.960;2022-09-29T07:45:59;2.40;;;0.50;;
70433;SDS011;57876;47.792;12.960;2022-09-29T07:48:24;2.28;;;0.50;;
70433;SDS011;57876;47.792;12.960;2022-09-29T07:50:49;3.30;;;0.63;;
70433;SDS011;57876;47.792;12.960;2022-09-29T07:53:15;3.20;;;0.60;;
70433;SDS011;57876;47.792;12.960;2022-09-29T07:55:39;3.20;;;0.43;;
70433;SDS011;57876;47.792;12.960;2022-09-29T07:58:04;2.90;;;0.50;;
70433;SDS011;57876;47.792;12.960;2022-09-29T08:00:29;2.88;;;0.50;;
70433;SDS011;57876;47.792;12.960;2022-09-29T08:02:54;2.80;;;0.50;;
70433;SDS011;57876;47.792;12.960;2022-09-29T08:05:18;2.10;;;0.40;;
70433;SDS011;57876;47.792;12.960;2022-09-29T08:07:42;2.72;;;0.50;;
70433;SDS011;57876;47.792;12.960;2022-09-29T08:10:07;2.90;;;0.60;;
70433;SDS011;57876;47.792;12.960;2022-09-29T08:12:32;2.83;;;0.60;;
70433;SDS011;57876;47.792;12.960;2022-09-29T08:14:56;2.90;;;0.50;;
70433;SDS011;57876;47.792;12.960;2022-09-29T08:17:21;2.97;;;0.60;;
70433;SDS011;57876;47.792;12.960;2022-09-29T08:19:45;3.23;;;0.50;;
70433;SDS011;57876;47.792;12.960;2022-09-29T08:22:09;2.77;;;0.50;;
70433;SDS011;57876;47.792;12.960;2022-09-29T08:24:34;2.57;;;0.50;;
70433;SDS011;57876;47.792;12.960;2022-09-29T08:27:00;2.27;;;0.50;;
70433;SDS011;57876;47.792;12.960;2022-09-29T08:29:24;2.88;;;0.50;;
70433;SDS011;57876;47.792;12.960;2022-09-29T08:31:49;2.90;;;0.50;;
70433;SDS011;57876;47.792;12.960;2022-09-29T08:34:14;3.22;;;0.57;;
70433;SDS011;57876;47.792;12.960;2022-09-29T08:36:38;2.83;;;0.50;;
70433;SDS011;57876;47.792;12.960;2022-09-29T08:39:03;2.90;;;0.50;;
70433;SDS011;57876;47.792;12.960;2022-09-29T08:46:39;2.50;;;0.45;;
70433;SDS011;57876;47.792;12.960;2022-09-29T08:49:13;3.25;;;0.60;;
70433;SDS011;57876;47.792;12.960;2022-09-29T08:51:46;2.50;;;0.50;;
70433;SDS011;57876;47.792;12.960;2022-09-29T08:54:35;3.65;;;0.70;;
70433;SDS011;57876;47.792;12.960;2022-09-29T08:56:59;2.73;;;0.60;;
70433;SDS011;57876;47.792;12.960;2022-09-29T08:59:24;2.97;;;0.50;;
70433;SDS011;57876;47.792;12.960;2022-09-29T09:01:56;2.67;;;0.50;;
70433;SDS011;57876;47.792;12.960;2022-09-29T09:14:33;3.10;;;0.50;;
70433;SDS011;57876;47.792;12.960;2022-09-29T09:22:55;2.80;;;0.50;;
70433;SDS011;57876;47.792;12.960;2022-09-29T09:27:59;2.97;;;0.60;;
70433;SDS011;57876;47.792;12.960;2022-09-29T09:30:29;3.05;;;0.50;;
70433;SDS011;57876;47.792;12.960;2022-09-29T09:33:00;2.70;;;0.57;;
70433;SDS011;57876;47.792;12.960;2022-09-29T09:35:31;3.00;;;0.60;;
70433;SDS011;57876;47.792;12.960;2022-09-29T09:37:58;3.05;;;0.50;;
70433;SDS011;57876;47.792;12.960;2022-09-29T09:40:28;2.63;;;0.50;;
70433;SDS011;57876;47.792;12.960;2022-09-29T09:43:02;3.10;;;0.60;;
70433;SDS011;57876;47.792;12.960;2022-09-29T09:45:41;2.92;;;0.50;;
70433;SDS011;57876;47.792;12.960;2022-09-29T09:48:12;2.57;;;0.50;;
70433;SDS011;57876;47.792;12.960;2022-09-29T09:50:42;2.78;;;0.60;;
70433;SDS011;57876;47.792;12.960;2022-09-29T09:53:11;2.80;;;0.60;;
70433;SDS011;57876;47.792;12.960;2022-09-29T09:55:39;2.90;;;0.60;;
70433;SDS011;57876;47.792;12.960;2022-09-29T10:00:47;3.00;;;0.50;;
70433;SDS011;57876;47.792;12.960;2022-09-29T10:03:16;2.80;;;0.60;;
70433;SDS011;57876;47.792;12.960;2022-09-29T10:05:41;3.00;;;0.60;;
70433;SDS011;57876;47.792;12.960;2022-09-29T10:08:12;2.63;;;0.60;;
70433;SDS011;57876;47.792;12.960;2022-09-29T10:10:42;2.75;;;0.50;;
70433;SDS011;57876;47.792;12.960;2022-09-29T10:13:09;2.20;;;0.40;;
70433;SDS011;57876;47.792;12.960;2022-09-29T10:15:41;2.83;;;0.50;;
70433;SDS011;57876;47.792;12.960;2022-09-29T10:18:19;2.85;;;0.60;;
70433;SDS011;57876;47.792;12.960;2022-09-29T10:20:44;3.50;;;0.60;;
70433;SDS011;57876;47.792;12.960;2022-09-29T10:23:19;2.87;;;0.60;;
70433;SDS011;57876;47.792;12.960;2022-09-29T10:25:50;3.15;;;0.60;;
70433;SDS011;57876;47.792;12.960;2022-09-29T10:28:27;2.95;;;0.50;;
70433;SDS011;57876;47.792;12.960;2022-09-29T10:30:59;3.03;;;0.52;;
70433;SDS011;57876;47.792;12.960;2022-09-29T10:33:23;3.07;;;0.60;;
70433;SDS011;57876;47.792;12.960;2022-09-29T10:35:49;2.65;;;0.52;;
70433;SDS011;57876;47.792;12.960;2022-09-29T10:38:25;3.15;;;0.60;;
70433;SDS011;57876;47.792;12.960;2022-09-29T10:41:08;3.50;;;0.70;;
70433;SDS011;57876;47.792;12.960;2022-09-29T10:45:58;3.73;;;0.70;;
70433;SDS011;57876;47.792;12.960;2022-09-29T10:48:23;2.88;;;0.68;;
70433;SDS011;57876;47.792;12.960;2022-09-29T10:50:53;2.40;;;0.50;;
70433;SDS011;57876;47.792;12.960;2022-09-29T10:53:39;2.90;;;0.60;;
70433;SDS011;57876;47.792;12.960;2022-09-29T10:56:17;2.90;;;0.60;;
70433;SDS011;57876;47.792;12.960;2022-09-29T10:58:51;3.75;;;0.50;;
70433;SDS011;57876;47.792;12.960;2022-09-29T11:01:17;3.05;;;0.60;;
70433;SDS011;57876;47.792;12.960;2022-09-29T11:06:27;2.92;;;0.50;;
70433;SDS011;57876;47.792;12.960;2022-09-29T11:09:00;2.97;;;0.60;;
70433;SDS011;57876;47.792;12.960;2022-09-29T11:11:36;2.25;;;0.40;;
70433;SDS011;57876;47.792;12.960;2022-09-29T11:14:02;3.13;;;0.60;;
70433;SDS011;57876;47.792;12.960;2022-09-29T11:16:32;2.50;;;0.50;;
70433;SDS011;57876;47.792;12.960;2022-09-29T11:19:04;3.08;;;0.60;;
70433;SDS011;57876;47.792;12.960;2022-09-29T11:24:05;2.65;;;0.50;;
70433;SDS011;57876;47.792;12.960;2022-09-29T11:26:43;3.00;;;0.60;;
70433;SDS011;57876;47.792;12.960;2022-09-29T11:35:06;3.00;;;0.50;;
70433;SDS011;57876;47.792;12.960;2022-09-29T11:43:06;2.60;;;0.60;;
70433;SDS011;57876;47.792;12.960;2022-09-29T11:45:42;2.75;;;0.43;;
70433;SDS011;57876;47.792;12.960;2022-09-29T11:50:53;2.30;;;0.50;;
70433;SDS011;57876;47.792;12.960;2022-09-29T11:55:59;2.80;;;0.60;;
70433;SDS011;57876;47.792;12.960;2022-09-29T12:09:57;2.30;;;0.40;;
70433;SDS011;57876;47.792;12.960;2022-09-29T12:17:32;2.67;;;0.60;;
70433;SDS011;57876;47.792;12.960;2022-09-29T12:20:01;3.40;;;0.60;;
70433;SDS011;57876;47.792;12.960;2022-09-29T12:22:30;2.90;;;0.50;;
70433;SDS011;57876;47.792;12.960;2022-09-29T12:24:56;3.03;;;0.50;;
70433;SDS011;57876;47.792;12.960;2022-09-29T12:30:36;2.97;;;0.57;;
70433;SDS011;57876;47.792;12.960;2022-09-29T12:32:49;2.75;;;0.60;;
70433;SDS011;57876;47.792;12.960;2022-09-29T12:35:18;2.50;;;0.43;;
70433;SDS011;57876;47.792;12.960;2022-09-29T12:37:58;2.75;;;0.50;;
70433;SDS011;57876;47.792;12.960;2022-09-29T12:40:52;2.67;;;0.50;;
70433;SDS011;57876;47.792;12.960;2022-09-29T12:46:15;3.28;;;0.50;;
70433;SDS011;57876;47.792;12.960;2022-09-29T12:48:49;2.43;;;0.50;;
70433;SDS011;57876;47.792;12.960;2022-09-29T12:51:34;3.58;;;0.60;;
70433;SDS011;57876;47.792;12.960;2022-09-29T12:56:42;2.78;;;0.50;;
70433;SDS011;57876;47.792;12.960;2022-09-29T13:02:01;2.80;;;0.60;;
70433;SDS011;57876;47.792;12.960;2022-09-29T13:04:56;3.47;;;0.70;;
70433;SDS011;57876;47.792;12.960;2022-09-29T13:21:19;3.60;;;0.70;;
70433;SDS011;57876;47.792;12.960;2022-09-29T13:29:00;3.33;;;0.70;;
70433;SDS011;57876;47.792;12.960;2022-09-29T13:31:35;3.47;;;0.70;;
70433;SDS011;57876;47.792;12.960;2022-09-29T13:34:02;3.10;;;0.68;;
70433;SDS011;57876;47.792;12.960;2022-09-29T13:36:28;3.10;;;0.70;;
70433;SDS011;57876;47.792;12.960;2022-09-29T13:38:58;3.27;;;0.77;;
70433;SDS011;57876;47.792;12.960;2022-09-29T13:59:36;4.18;;;0.77;;
70433;SDS011;57876;47.792;12.960;2022-09-29T14:04:50;3.78;;;0.80;;
70433;SDS011;57876;47.792;12.960;2022-09-29T14:10:02;3.67;;;0.88;;
70433;SDS011;57876;47.792;12.960;2022-09-29T14:15:34;3.30;;;0.60;;
70433;SDS011;57876;47.792;12.960;2022-09-29T14:18:15;3.90;;;0.70;;
70433;SDS011;57876;47.792;12.960;2022-09-29T14:21:03;3.22;;;0.60;;
70433;SDS011;57876;47.792;12.960;2022-09-29T14:24:16;3.90;;;0.73;;
70433;SDS011;57876;47.792;12.960;2022-09-29T14:26:42;5.65;;;0.80;;
70433;SDS011;57876;47.792;12.960;2022-09-29T14:29:19;3.83;;;0.83;;
70433;SDS011;57876;47.792;12.960;2022-09-29T14:31:49;5.03;;;0.80;;
70433;SDS011;57876;47.792;12.960;2022-09-29T14:34:17;4.38;;;0.80;;
70433;SDS011;57876;47.792;12.960;2022-09-29T14:36:45;3.80;;;0.70;;
70433;SDS011;57876;47.792;12.960;2022-09-29T14:39:10;3.95;;;0.80;;
70433;SDS011;57876;47.792;12.960;2022-09-29T14:41:41;3.97;;;0.90;;
70433;SDS011;57876;47.792;12.960;2022-09-29T14:44:19;3.92;;;0.60;;
70433;SDS011;57876;47.792;12.960;2022-09-29T14:47:03;3.90;;;0.82;;
70433;SDS011;57876;47.792;12.960;2022-09-29T14:52:27;4.30;;;0.80;;
70433;SDS011;57876;47.792;12.960;2022-09-29T14:55:05;3.90;;;0.80;;
70433;SDS011;57876;47.792;12.960;2022-09-29T15:00:20;4.78;;;0.90;;
70433;SDS011;57876;47.792;12.960;2022-09-29T15:02:48;3.60;;;0.68;;
70433;SDS011;57876;47.792;12.960;2022-09-29T15:05:25;5.70;;;0.85;;
70433;SDS011;57876;47.792;12.960;2022-09-29T15:07:51;3.13;;;0.70;;
70433;SDS011;57876;47.792;12.960;2022-09-29T15:10:21;3.97;;;0.85;;
70433;SDS011;57876;47.792;12.960;2022-09-29T15:12:50;4.13;;;0.70;;
70433;SDS011;57876;47.792;12.960;2022-09-29T15:15:27;4.28;;;0.75;;
70433;SDS011;57876;47.792;12.960;2022-09-29T15:17:55;4.05;;;0.90;;
70433;SDS011;57876;47.792;12.960;2022-09-29T15:20:30;4.00;;;0.80;;
70433;SDS011;57876;47.792;12.960;2022-09-29T15:26:00;4.10;;;0.90;;
70433;SDS011;57876;47.792;12.960;2022-09-29T15:28:31;3.17;;;0.60;;
70433;SDS011;57876;47.792;12.960;2022-09-29T15:31:01;3.53;;;0.80;;
70433;SDS011;57876;47.792;12.960;2022-09-29T15:33:27;3.38;;;0.68;;
70433;SDS011;57876;47.792;12.960;2022-09-29T15:38:28;3.80;;;0.70;;
70433;SDS011;57876;47.792;12.960;2022-09-29T15:40:56;3.80;;;0.87;;
70433;SDS011;57876;47.792;12.960;2022-09-29T15:43:24;4.68;;;0.80;;
70433;SDS011;57876;47.792;12.960;2022-09-29T15:45:51;4.47;;;0.80;;
70433;SDS011;57876;47.792;12.960;2022-09-29T15:48:22;4.20;;;1.20;;
70433;SDS011;57876;47.792;12.960;2022-09-29T15:50:47;3.50;;;0.70;;
70433;SDS011;57876;47.792;12.960;2022-09-29T15:53:14;4.18;;;1.00;;
70433;SDS011;57876;47.792;12.960;2022-09-29T15:55:38;3.60;;;0.80;;
70433;SDS011;57876;47.792;12.960;2022-09-29T16:00:49;3.33;;;0.70;;
70433;SDS011;57876;47.792;12.960;2022-09-29T16:03:24;3.25;;;0.60;;
70433;SDS011;57876;47.792;12.960;2022-09-29T16:05:55;4.20;;;0.70;;
70433;SDS011;57876;47.792;12.960;2022-09-29T16:08:22;3.88;;;0.75;;
70433;SDS011;57876;47.792;12.960;2022-09-29T16:10:50;3.67;;;0.70;;
70433;SDS011;57876;47.792;12.960;2022-09-29T16:13:23;4.27;;;0.80;;
70433;SDS011;57876;47.792;12.960;2022-09-29T16:15:50;3.92;;;0.60;;
70433;SDS011;57876;47.792;12.960;2022-09-29T16:21:17;4.10;;;0.70;;
70433;SDS011;57876;47.792;12.960;2022-09-29T16:23:47;2.92;;;0.60;;
70433;SDS011;57876;47.792;12.960;2022-09-29T16:26:14;2.93;;;0.63;;
70433;SDS011;57876;47.792;12.960;2022-09-29T16:31:25;3.00;;;0.57;;
70433;SDS011;57876;47.792;12.960;2022-09-29T16:33:51;3.75;;;0.73;;
70433;SDS011;57876;47.792;12.960;2022-09-29T16:36:24;3.20;;;0.68;;
70433;SDS011;57876;47.792;12.960;2022-09-29T16:38:50;3.23;;;0.50;;
70433;SDS011;57876;47.792;12.960;2022-09-29T16:46:48;3.47;;;0.70;;
70433;SDS011;57876;47.792;12.960;2022-09-29T16:49:23;2.95;;;0.60;;
70433;SDS011;57876;47.792;12.960;2022-09-29T16:51:50;3.37;;;0.67;;
70433;SDS011;57876;47.792;12.960;2022-09-29T16:54:24;3.47;;;0.63;;
70433;SDS011;57876;47.792;12.960;2022-09-29T16:57:36;3.05;;;0.60;;
70433;SDS011;57876;47.792;12.960;2022-09-29T16:59:57;3.38;;;0.60;;
70433;SDS011;57876;47.792;12.960;2022-09-29T17:02:23;3.70;;;0.70;;
70433;SDS011;57876;47.792;12.960;2022-09-29T17:04:52;3.67;;;0.90;;
70433;SDS011;57876;47.792;12.960;2022-09-29T17:07:18;3.70;;;0.63;;
70433;SDS011;57876;47.792;12.960;2022-09-29T17:09:45;3.17;;;0.60;;
70433;SDS011;57876;47.792;12.960;2022-09-29T17:12:12;3.70;;;0.70;;
70433;SDS011;57876;47.792;12.960;2022-09-29T17:14:37;3.08;;;0.60;;
70433;SDS011;57876;47.792;12.960;2022-09-29T17:17:02;3.87;;;0.80;;
70433;SDS011;57876;47.792;12.960;2022-09-29T17:19:26;3.70;;;0.70;;
70433;SDS011;57876;47.792;12.960;2022-09-29T17:21:51;3.07;;;0.50;;
70433;SDS011;57876;47.792;12.960;2022-09-29T17:24:16;3.40;;;0.70;;
70433;SDS011;57876;47.792;12.960;2022-09-29T17:26:42;3.73;;;0.60;;
70433;SDS011;57876;47.792;12.960;2022-09-29T17:29:26;3.35;;;0.70;;
70433;SDS011;57876;47.792;12.960;2022-09-29T17:31:51;3.50;;;0.70;;
70433;SDS011;57876;47.792;12.960;2022-09-29T17:34:16;3.20;;;0.68;;
70433;SDS011;57876;47.792;12.960;2022-09-29T17:36:43;4.50;;;0.70;;
70433;SDS011;57876;47.792;12.960;2022-09-29T17:39:08;3.53;;;0.70;;
70433;SDS011;57876;47.792;12.960;2022-09-29T17:41:32;2.77;;;0.60;;
70433;SDS011;57876;47.792;12.960;2022-09-29T17:43:57;3.70;;;0.70;;